PWSweather.com
Personal Weather Stations
Station Observations
RAINMAN1
Jacksonville, FL 32224

Jacksonville, FL 32224

Lat: 30.28041649, Lon: -81.46911621

Elevation: 26

Station Type: Tycon TP1080WC

Latest ConditionsUpdated 7:20:01 AM EDT Friday, Jul 25, 2014
Currently Today's Max Today's Min Today's Average
Temperature 80.1°F26.7°C 83.8°F28.8°C 77.2°F25.1°C 79.6°F26.4°C
Dew Point 77.9°F25.5°C 77.9°F25.5°C 74.7°F23.7°C 75.9°F24.4°C
Winds 1.3 mph W2.1 kmh W 8.0 mph W12.9 kmh W - 2.5 mph 4.0 kmh
Wind Gusts 3.8 mph6.1 kmh 12.1 mph19.5 kmh - -
Humidity 93% 96% 74% 89%
Pressure 29.73 in1006.8 mb 29.73 in1006.8 mb 29.68 in1005.1 mb -
Hour Temp Dew Point Humidity Winds Wind Gusts Pressure Precip Precip Rate Daily Precip Total
07:20 AM 80.1°F26.7°C 77.9°F25.5°C 93% 1.3 mph W2.1 kmh W 3.8 mph6.1 kmh 29.73 in1006.8 mb 0.00 in0.0 mm 0.00 in/hr0.0 mm/hr 0.00 in0.0 mm
07:15 AM 79.2°F26.2°C 77.3°F25.2°C 94% 1.4 mph SW2.3 kmh SW 3.8 mph6.1 kmh 29.73 in1006.8 mb 0.00 in0.0 mm 0.00 in/hr0.0 mm/hr 0.00 in0.0 mm
07:10 AM 78.1°F25.6°C 76.6°F24.8°C 95% 1.4 mph S2.3 kmh S 2.2 mph3.5 kmh 29.72 in1006.4 mb 0.00 in0.0 mm 0.00 in/hr0.0 mm/hr 0.00 in0.0 mm
07:05 AM 77.7°F25.4°C 76.2°F24.6°C 95% 1.2 mph S1.9 kmh S 1.6 mph2.6 kmh 29.72 in1006.4 mb 0.00 in0.0 mm 0.00 in/hr0.0 mm/hr 0.00 in0.0 mm
07:00 AM 77.7°F25.4°C 76.2°F24.6°C 95% 1.3 mph WSW2.1 kmh WSW 3.1 mph5.0 kmh 29.72 in1006.4 mb 0.00 in0.0 mm 0.00 in/hr0.0 mm/hr 0.00 in0.0 mm
06:55 AM 77.7°F25.4°C 75.9°F24.4°C 94% 1.8 mph NW2.9 kmh NW 3.1 mph5.0 kmh 29.72 in1006.4 mb 0.00 in0.0 mm 0.00 in/hr0.0 mm/hr 0.00 in0.0 mm
06:50 AM 77.9°F25.5°C 76.1°F24.5°C 94% 2.0 mph NW3.2 kmh NW 3.8 mph6.1 kmh 29.72 in1006.4 mb 0.00 in0.0 mm 0.00 in/hr0.0 mm/hr 0.00 in0.0 mm
06:45 AM 77.7°F25.4°C 75.9°F24.4°C 94% 1.4 mph W2.3 kmh W 3.8 mph6.1 kmh 29.71 in1006.1 mb 0.00 in0.0 mm 0.00 in/hr0.0 mm/hr 0.00 in0.0 mm
06:40 AM 78.1°F25.6°C 76.3°F24.6°C 94% 1.2 mph WSW1.9 kmh WSW 2.2 mph3.5 kmh 29.71 in1006.1 mb 0.00 in0.0 mm 0.00 in/hr0.0 mm/hr 0.00 in0.0 mm
06:35 AM 78.1°F25.6°C 75.9°F24.4°C 93% 2.2 mph W3.5 kmh W 3.8 mph6.1 kmh 29.71 in1006.1 mb 0.00 in0.0 mm 0.00 in/hr0.0 mm/hr 0.00 in0.0 mm
06:30 AM 78.1°F25.6°C 75.9°F24.4°C 93% 2.4 mph W3.9 kmh W 3.8 mph6.1 kmh 29.71 in1006.1 mb 0.00 in0.0 mm 0.00 in/hr0.0 mm/hr 0.00 in0.0 mm
06:25 AM 78.3°F25.7°C 76.1°F24.5°C 93% 2.5 mph WNW4.0 kmh WNW 3.1 mph5.0 kmh 29.71 in1006.1 mb 0.00 in0.0 mm 0.00 in/hr0.0 mm/hr 0.00 in0.0 mm
06:20 AM 78.3°F25.7°C 76.5°F24.7°C 94% 2.6 mph NW4.2 kmh NW 3.8 mph6.1 kmh 29.71 in1006.1 mb 0.00 in0.0 mm 0.00 in/hr0.0 mm/hr 0.00 in0.0 mm
06:15 AM 78.1°F25.6°C 75.9°F24.4°C 93% 2.3 mph NW3.7 kmh NW 4.5 mph7.2 kmh 29.71 in1006.1 mb 0.00 in0.0 mm 0.00 in/hr0.0 mm/hr 0.00 in0.0 mm
06:10 AM 78.3°F25.7°C 76.1°F24.5°C 93% 2.3 mph W3.7 kmh W 4.5 mph7.2 kmh 29.70 in1005.8 mb 0.00 in0.0 mm 0.00 in/hr0.0 mm/hr 0.00 in0.0 mm
06:05 AM 78.3°F25.7°C 76.5°F24.7°C 94% 2.6 mph W4.2 kmh W 5.4 mph8.7 kmh 29.70 in1005.8 mb 0.00 in0.0 mm 0.00 in/hr0.0 mm/hr 0.00 in0.0 mm
06:00 AM 78.3°F25.7°C 76.5°F24.7°C 94% 2.7 mph W4.3 kmh W 5.4 mph8.7 kmh 29.70 in1005.8 mb 0.00 in0.0 mm 0.00 in/hr0.0 mm/hr 0.00 in0.0 mm
05:55 AM 78.3°F25.7°C 76.1°F24.5°C 93% 2.7 mph NW4.3 kmh NW 5.4 mph8.7 kmh 29.70 in1005.8 mb 0.00 in0.0 mm 0.00 in/hr0.0 mm/hr 0.00 in0.0 mm
05:50 AM 78.3°F25.7°C 76.1°F24.5°C 93% 2.6 mph NW4.2 kmh NW 5.4 mph8.7 kmh 29.70 in1005.8 mb 0.00 in0.0 mm 0.00 in/hr0.0 mm/hr 0.00 in0.0 mm
05:45 AM 78.3°F25.7°C 76.5°F24.7°C 94% 2.6 mph W4.2 kmh W 3.8 mph6.1 kmh 29.70 in1005.8 mb 0.00 in0.0 mm 0.00 in/hr0.0 mm/hr 0.00 in0.0 mm
05:40 AM 78.3°F25.7°C 76.5°F24.7°C 94% 2.5 mph WSW4.0 kmh WSW 4.5 mph7.2 kmh 29.70 in1005.8 mb 0.00 in0.0 mm 0.00 in/hr0.0 mm/hr 0.00 in0.0 mm
05:35 AM 78.1°F25.6°C 76.6°F24.8°C 95% 2.6 mph W4.2 kmh W 4.5 mph7.2 kmh 29.70 in1005.8 mb 0.00 in0.0 mm 0.00 in/hr0.0 mm/hr 0.00 in0.0 mm
05:30 AM 77.9°F25.5°C 76.4°F24.7°C 95% 3.0 mph NW4.8 kmh NW 3.8 mph6.1 kmh 29.69 in1005.4 mb 0.00 in0.0 mm 0.00 in/hr0.0 mm/hr 0.00 in0.0 mm
05:25 AM 78.1°F25.6°C 76.6°F24.8°C 95% 3.5 mph N5.6 kmh N 3.8 mph6.1 kmh 29.69 in1005.4 mb 0.00 in0.0 mm 0.00 in/hr0.0 mm/hr 0.00 in0.0 mm
05:20 AM 77.4°F25.2°C 76.2°F24.6°C 96% 3.2 mph N5.1 kmh N 4.5 mph7.2 kmh 29.70 in1005.8 mb 0.00 in0.0 mm 0.00 in/hr0.0 mm/hr 0.00 in0.0 mm
05:15 AM 77.4°F25.2°C 76.2°F24.6°C 96% 2.2 mph NW3.5 kmh NW 4.5 mph7.2 kmh 29.69 in1005.4 mb 0.00 in0.0 mm 0.00 in/hr0.0 mm/hr 0.00 in0.0 mm
05:10 AM 77.4°F25.2°C 76.2°F24.6°C 96% 0.9 mph NW1.4 kmh NW 3.8 mph6.1 kmh 29.69 in1005.4 mb 0.00 in0.0 mm 0.00 in/hr0.0 mm/hr 0.00 in0.0 mm
05:05 AM 77.2°F25.1°C 75.7°F24.3°C 95% 0.1 mph W0.2 kmh W 0.7 mph1.1 kmh 29.69 in1005.4 mb 0.00 in0.0 mm 0.00 in/hr0.0 mm/hr 0.00 in0.0 mm
05:00 AM 77.5°F25.3°C 76.1°F24.5°C 95% 0.4 mph NW0.6 kmh NW 1.6 mph2.6 kmh 29.69 in1005.4 mb 0.00 in0.0 mm 0.00 in/hr0.0 mm/hr 0.00 in0.0 mm
04:55 AM 77.7°F25.4°C 76.2°F24.6°C 95% 1.3 mph NW2.1 kmh NW 2.2 mph3.5 kmh 29.69 in1005.4 mb 0.00 in0.0 mm 0.00 in/hr0.0 mm/hr 0.00 in0.0 mm
04:50 AM 77.7°F25.4°C 76.2°F24.6°C 95% 1.1 mph NW1.8 kmh NW 2.2 mph3.5 kmh 29.69 in1005.4 mb 0.00 in0.0 mm 0.00 in/hr0.0 mm/hr 0.00 in0.0 mm
04:45 AM 77.9°F25.5°C 76.1°F24.5°C 94% 0.5 mph W0.8 kmh W 1.6 mph2.6 kmh 29.68 in1005.1 mb 0.00 in0.0 mm 0.00 in/hr0.0 mm/hr 0.00 in0.0 mm
04:40 AM 77.7°F25.4°C 75.9°F24.4°C 94% 1.4 mph WNW2.3 kmh WNW 3.1 mph5.0 kmh 29.69 in1005.4 mb 0.00 in0.0 mm 0.00 in/hr0.0 mm/hr 0.00 in0.0 mm
04:35 AM 77.9°F25.5°C 76.1°F24.5°C 94% 1.9 mph WNW3.1 kmh WNW 3.1 mph5.0 kmh 29.69 in1005.4 mb 0.00 in0.0 mm 0.00 in/hr0.0 mm/hr 0.00 in0.0 mm
04:30 AM 77.9°F25.5°C 76.1°F24.5°C 94% 1.7 mph WSW2.7 kmh WSW 2.2 mph3.5 kmh 29.69 in1005.4 mb 0.00 in0.0 mm 0.00 in/hr0.0 mm/hr 0.00 in0.0 mm
04:25 AM 78.1°F25.6°C 76.3°F24.6°C 94% 1.6 mph SSW2.6 kmh SSW 2.2 mph3.5 kmh 29.69 in1005.4 mb 0.00 in0.0 mm 0.00 in/hr0.0 mm/hr 0.00 in0.0 mm
04:20 AM 77.9°F25.5°C 75.8°F24.3°C 93% 1.8 mph SSW2.9 kmh SSW 3.8 mph6.1 kmh 29.68 in1005.1 mb 0.00 in0.0 mm 0.00 in/hr0.0 mm/hr 0.00 in0.0 mm
04:15 AM 77.9°F25.5°C 75.8°F24.3°C 93% 1.6 mph SW2.6 kmh SW 3.8 mph6.1 kmh 29.68 in1005.1 mb 0.00 in0.0 mm 0.00 in/hr0.0 mm/hr 0.00 in0.0 mm
04:10 AM 78.1°F25.6°C 75.9°F24.4°C 93% 1.7 mph SW2.7 kmh SW 3.1 mph5.0 kmh 29.68 in1005.1 mb 0.00 in0.0 mm 0.00 in/hr0.0 mm/hr 0.00 in0.0 mm
04:05 AM 78.1°F25.6°C 75.9°F24.4°C 93% 2.4 mph SW3.9 kmh SW 3.1 mph5.0 kmh 29.68 in1005.1 mb 0.00 in0.0 mm 0.00 in/hr0.0 mm/hr 0.00 in0.0 mm
04:00 AM 78.3°F25.7°C 76.1°F24.5°C 93% 1.7 mph SW2.7 kmh SW 3.1 mph5.0 kmh 29.68 in1005.1 mb 0.00 in0.0 mm 0.00 in/hr0.0 mm/hr 0.00 in0.0 mm
03:55 AM 78.3°F25.7°C 76.1°F24.5°C 93% 1.6 mph SSW2.6 kmh SSW 3.1 mph5.0 kmh 29.68 in1005.1 mb 0.00 in0.0 mm 0.00 in/hr0.0 mm/hr 0.00 in0.0 mm
03:50 AM 78.3°F25.7°C 76.1°F24.5°C 93% 2.1 mph SSW3.4 kmh SSW 3.1 mph5.0 kmh 29.68 in1005.1 mb 0.00 in0.0 mm 0.00 in/hr0.0 mm/hr 0.00 in0.0 mm
03:45 AM 78.4°F25.8°C 76.3°F24.6°C 93% 1.9 mph S3.1 kmh S 3.1 mph5.0 kmh 29.68 in1005.1 mb 0.00 in0.0 mm 0.00 in/hr0.0 mm/hr 0.00 in0.0 mm
03:40 AM 78.4°F25.8°C 76.3°F24.6°C 93% 1.6 mph S2.6 kmh S 2.2 mph3.5 kmh 29.68 in1005.1 mb 0.00 in0.0 mm 0.00 in/hr0.0 mm/hr 0.00 in0.0 mm
03:35 AM 78.8°F26.0°C 76.0°F24.4°C 91% 1.5 mph SSW2.4 kmh SSW 2.2 mph3.5 kmh 29.68 in1005.1 mb 0.00 in0.0 mm 0.00 in/hr0.0 mm/hr 0.00 in0.0 mm
03:30 AM 78.8°F26.0°C 76.0°F24.4°C 91% 1.6 mph SW2.6 kmh SW 2.2 mph3.5 kmh 29.68 in1005.1 mb 0.00 in0.0 mm 0.00 in/hr0.0 mm/hr 0.00 in0.0 mm
03:25 AM 79.0°F26.1°C 75.9°F24.4°C 90% 1.4 mph WSW2.3 kmh WSW 2.2 mph3.5 kmh 29.68 in1005.1 mb 0.00 in0.0 mm 0.00 in/hr0.0 mm/hr 0.00 in0.0 mm
03:20 AM 79.0°F26.1°C 75.9°F24.4°C 90% 1.7 mph S2.7 kmh S 3.1 mph5.0 kmh 29.68 in1005.1 mb 0.00 in0.0 mm 0.00 in/hr0.0 mm/hr 0.00 in0.0 mm
03:15 AM 79.2°F26.2°C 76.4°F24.7°C 91% 2.1 mph SSW3.4 kmh SSW 3.8 mph6.1 kmh 29.68 in1005.1 mb 0.00 in0.0 mm 0.00 in/hr0.0 mm/hr 0.00 in0.0 mm
03:10 AM 79.2°F26.2°C 76.0°F24.4°C 90% 1.7 mph SW2.7 kmh SW 3.8 mph6.1 kmh 29.68 in1005.1 mb 0.00 in0.0 mm 0.00 in/hr0.0 mm/hr 0.00 in0.0 mm
03:05 AM 79.3°F26.3°C 75.9°F24.4°C 89% 1.5 mph SW2.4 kmh SW 3.1 mph5.0 kmh 29.68 in1005.1 mb 0.00 in0.0 mm 0.00 in/hr0.0 mm/hr 0.00 in0.0 mm
03:00 AM 79.5°F26.4°C 75.7°F24.3°C 88% 1.8 mph WSW2.9 kmh WSW 3.1 mph5.0 kmh 29.68 in1005.1 mb 0.00 in0.0 mm 0.00 in/hr0.0 mm/hr 0.00 in0.0 mm
02:55 AM 79.3°F26.3°C 75.5°F24.2°C 88% 1.6 mph W2.6 kmh W 3.1 mph5.0 kmh 29.68 in1005.1 mb 0.00 in0.0 mm 0.00 in/hr0.0 mm/hr 0.00 in0.0 mm
02:50 AM 79.5°F26.4°C 75.7°F24.3°C 88% 1.5 mph W2.4 kmh W 3.8 mph6.1 kmh 29.68 in1005.1 mb 0.00 in0.0 mm 0.00 in/hr0.0 mm/hr 0.00 in0.0 mm
02:45 AM 79.7°F26.5°C 75.9°F24.4°C 88% 2.0 mph WSW3.2 kmh WSW 3.8 mph6.1 kmh 29.69 in1005.4 mb 0.00 in0.0 mm 0.00 in/hr0.0 mm/hr 0.00 in0.0 mm
02:40 AM 79.7°F26.5°C 75.9°F24.4°C 88% 2.0 mph SSW3.2 kmh SSW 3.8 mph6.1 kmh 29.69 in1005.4 mb 0.00 in0.0 mm 0.00 in/hr0.0 mm/hr 0.00 in0.0 mm
02:35 AM 79.9°F26.6°C 76.1°F24.5°C 88% 1.7 mph SW2.7 kmh SW 3.1 mph5.0 kmh 29.68 in1005.1 mb 0.00 in0.0 mm 0.00 in/hr0.0 mm/hr 0.00 in0.0 mm
02:30 AM 80.1°F26.7°C 75.6°F24.2°C 86% 1.7 mph SW2.7 kmh SW 3.1 mph5.0 kmh 29.68 in1005.1 mb 0.00 in0.0 mm 0.00 in/hr0.0 mm/hr 0.00 in0.0 mm
02:25 AM 80.2°F26.8°C 75.7°F24.3°C 86% 2.4 mph SW3.9 kmh SW 3.8 mph6.1 kmh 29.68 in1005.1 mb 0.00 in0.0 mm 0.00 in/hr0.0 mm/hr 0.00 in0.0 mm
02:20 AM 80.4°F26.9°C 75.9°F24.4°C 86% 3.6 mph WSW5.8 kmh WSW 5.4 mph8.7 kmh 29.68 in1005.1 mb 0.00 in0.0 mm 0.00 in/hr0.0 mm/hr 0.00 in0.0 mm
02:15 AM 80.4°F26.9°C 75.9°F24.4°C 86% 3.1 mph WSW5.0 kmh WSW 5.4 mph8.7 kmh 29.68 in1005.1 mb 0.00 in0.0 mm 0.00 in/hr0.0 mm/hr 0.00 in0.0 mm
02:10 AM 80.4°F26.9°C 75.6°F24.2°C 85% 2.2 mph SW3.5 kmh SW 2.2 mph3.5 kmh 29.69 in1005.4 mb 0.00 in0.0 mm 0.00 in/hr0.0 mm/hr 0.00 in0.0 mm
02:05 AM 80.8°F27.1°C 75.6°F24.2°C 84% 2.1 mph SW3.4 kmh SW 2.2 mph3.5 kmh 29.68 in1005.1 mb 0.00 in0.0 mm 0.00 in/hr0.0 mm/hr 0.00 in0.0 mm
02:00 AM 80.8°F27.1°C 75.6°F24.2°C 84% 2.4 mph W3.9 kmh W 4.5 mph7.2 kmh 29.68 in1005.1 mb 0.00 in0.0 mm 0.00 in/hr0.0 mm/hr 0.00 in0.0 mm
01:55 AM 80.8°F27.1°C 75.6°F24.2°C 84% 2.6 mph W4.2 kmh W 4.5 mph7.2 kmh 29.68 in1005.1 mb 0.00 in0.0 mm 0.00 in/hr0.0 mm/hr 0.00 in0.0 mm
01:50 AM 80.8°F27.1°C 75.6°F24.2°C 84% 2.0 mph SW3.2 kmh SW 3.8 mph6.1 kmh 29.68 in1005.1 mb 0.00 in0.0 mm 0.00 in/hr0.0 mm/hr 0.00 in0.0 mm
01:45 AM 81.0°F27.2°C 75.4°F24.1°C 83% 1.7 mph S2.7 kmh S 2.2 mph3.5 kmh 29.68 in1005.1 mb 0.00 in0.0 mm 0.00 in/hr0.0 mm/hr 0.00 in0.0 mm
01:40 AM 81.1°F27.3°C 75.5°F24.2°C 83% 1.8 mph SW2.9 kmh SW 3.1 mph5.0 kmh 29.68 in1005.1 mb 0.00 in0.0 mm 0.00 in/hr0.0 mm/hr 0.00 in0.0 mm
01:35 AM 81.3°F27.4°C 75.0°F23.9°C 81% 3.0 mph SW4.8 kmh SW 7.6 mph12.2 kmh 29.68 in1005.1 mb 0.00 in0.0 mm 0.00 in/hr0.0 mm/hr 0.00 in0.0 mm
01:30 AM 81.5°F27.5°C 75.2°F24.0°C 81% 3.3 mph W5.3 kmh W 7.6 mph12.2 kmh 29.68 in1005.1 mb 0.00 in0.0 mm 0.00 in/hr0.0 mm/hr 0.00 in0.0 mm
01:25 AM 81.5°F27.5°C 75.2°F24.0°C 81% 2.1 mph W3.4 kmh W 3.1 mph5.0 kmh 29.69 in1005.4 mb 0.00 in0.0 mm 0.00 in/hr0.0 mm/hr 0.00 in0.0 mm
01:20 AM 81.9°F27.7°C 75.1°F23.9°C 80% 2.8 mph SW4.5 kmh SW 9.2 mph14.8 kmh 29.68 in1005.1 mb 0.00 in0.0 mm 0.00 in/hr0.0 mm/hr 0.00 in0.0 mm
01:15 AM 82.2°F27.9°C 75.5°F24.2°C 80% 3.9 mph WSW6.3 kmh WSW 9.2 mph14.8 kmh 29.68 in1005.1 mb 0.00 in0.0 mm 0.00 in/hr0.0 mm/hr 0.00 in0.0 mm
01:10 AM 82.2°F27.9°C 75.5°F24.2°C 80% 3.5 mph NNW5.6 kmh NNW 6.0 mph9.7 kmh 29.69 in1005.4 mb 0.00 in0.0 mm 0.00 in/hr0.0 mm/hr 0.00 in0.0 mm
01:05 AM 82.4°F28.0°C 75.3°F24.1°C 79% 3.4 mph NNW5.5 kmh NNW 6.0 mph9.7 kmh 29.69 in1005.4 mb 0.00 in0.0 mm 0.00 in/hr0.0 mm/hr 0.00 in0.0 mm
01:00 AM 82.4°F28.0°C 75.3°F24.1°C 79% 3.4 mph NW5.5 kmh NW 6.0 mph9.7 kmh 29.69 in1005.4 mb 0.00 in0.0 mm 0.00 in/hr0.0 mm/hr 0.00 in0.0 mm
12:55 AM 82.6°F28.1°C 75.5°F24.2°C 79% 4.1 mph W6.6 kmh W 6.9 mph11.1 kmh 29.69 in1005.4 mb 0.00 in0.0 mm 0.00 in/hr0.0 mm/hr 0.00 in0.0 mm
12:50 AM 82.8°F28.2°C 75.3°F24.1°C 78% 4.9 mph WNW7.9 kmh WNW 6.9 mph11.1 kmh 29.69 in1005.4 mb 0.00 in0.0 mm 0.00 in/hr0.0 mm/hr 0.00 in0.0 mm
12:45 AM 82.8°F28.2°C 75.3°F24.1°C 78% 5.5 mph W8.9 kmh W 9.8 mph15.8 kmh 29.68 in1005.1 mb 0.00 in0.0 mm 0.00 in/hr0.0 mm/hr 0.00 in0.0 mm
12:40 AM 82.9°F28.3°C 75.4°F24.1°C 78% 7.5 mph W12.1 kmh W 12.1 mph19.5 kmh 29.69 in1005.4 mb 0.00 in0.0 mm 0.00 in/hr0.0 mm/hr 0.00 in0.0 mm
12:35 AM 83.1°F28.4°C 75.2°F24.0°C 77% 8.0 mph W12.9 kmh W 12.1 mph19.5 kmh 29.69 in1005.4 mb 0.00 in0.0 mm 0.00 in/hr0.0 mm/hr 0.00 in0.0 mm
12:30 AM 83.1°F28.4°C 75.2°F24.0°C 77% 5.8 mph W9.3 kmh W 9.8 mph15.8 kmh 29.69 in1005.4 mb 0.00 in0.0 mm 0.00 in/hr0.0 mm/hr 0.00 in0.0 mm
12:25 AM 82.9°F28.3°C 74.7°F23.7°C 76% 4.0 mph W6.4 kmh W 6.9 mph11.1 kmh 29.69 in1005.4 mb 0.00 in0.0 mm 0.00 in/hr0.0 mm/hr 0.00 in0.0 mm
12:20 AM 83.3°F28.5°C 75.0°F23.9°C 76% 4.0 mph W6.4 kmh W 7.6 mph12.2 kmh 29.69 in1005.4 mb 0.00 in0.0 mm 0.00 in/hr0.0 mm/hr 0.00 in0.0 mm
12:15 AM 83.5°F28.6°C 75.2°F24.0°C 76% 5.4 mph NW8.7 kmh NW 7.6 mph12.2 kmh 29.69 in1005.4 mb 0.00 in0.0 mm 0.00 in/hr0.0 mm/hr 0.00 in0.0 mm
12:10 AM 83.7°F28.7°C 75.0°F23.9°C 75% 6.7 mph N10.8 kmh N 6.9 mph11.1 kmh 29.69 in1005.4 mb 0.00 in0.0 mm 0.00 in/hr0.0 mm/hr 0.00 in0.0 mm
12:05 AM 83.8°F28.8°C 74.7°F23.7°C 74% 6.2 mph NNW10.0 kmh NNW 6.9 mph11.1 kmh 29.69 in1005.4 mb 0.00 in0.0 mm 0.00 in/hr0.0 mm/hr 0.00 in0.0 mm
12:00 AM 83.8°F28.8°C 74.7°F23.7°C 74% 5.0 mph WSW8.0 kmh WSW 6.9 mph11.1 kmh 29.69 in1005.4 mb 0.00 in0.0 mm 0.00 in/hr0.0 mm/hr 0.00 in0.0 mm